createdAt,value
2018-11-05T00:01:44.706Z,69.48
2018-11-05T00:04:14.675Z,68.73
2018-11-05T00:06:44.634Z,69.60
2018-11-05T00:09:14.633Z,68.99
2018-11-05T00:11:44.621Z,69.29
2018-11-05T00:14:14.699Z,69.16
2018-11-05T00:16:44.684Z,69.64
2018-11-05T00:19:14.675Z,69.89
2018-11-05T00:21:44.654Z,70.53
2018-11-05T00:24:14.647Z,71.23
2018-11-05T00:26:44.817Z,71.50
2018-11-05T00:29:14.942Z,71.49
2018-11-05T00:31:44.879Z,71.69
2018-11-05T00:34:14.858Z,70.86
2018-11-05T00:36:44.818Z,70.25
2018-11-05T00:39:14.786Z,70.32
2018-11-05T00:41:44.734Z,69.28
2018-11-05T00:44:14.721Z,67.94
2018-11-05T00:46:44.712Z,68.40
2018-11-05T00:49:14.688Z,68.36
2018-11-05T00:51:44.672Z,68.98
2018-11-05T00:54:14.618Z,70.15
2018-11-05T00:56:44.705Z,70.45
2018-11-05T00:59:14.726Z,70.65
2018-11-05T01:01:44.659Z,70.71
2018-11-05T01:04:14.623Z,70.20
2018-11-05T01:06:44.595Z,69.85
2018-11-05T01:09:14.625Z,69.08
2018-11-05T01:11:44.614Z,68.62
2018-11-05T01:14:14.622Z,68.66
2018-11-05T01:16:44.579Z,69.06
2018-11-05T01:19:14.692Z,69.81
2018-11-05T01:21:44.662Z,69.17
2018-11-05T01:24:14.622Z,68.82
2018-11-05T01:26:44.595Z,69.30
2018-11-05T01:29:14.552Z,69.60
2018-11-05T01:31:44.736Z,69.04
2018-11-05T01:34:14.768Z,68.55
2018-11-05T01:36:44.701Z,69.66
2018-11-05T01:39:14.763Z,70.58
2018-11-05T01:41:44.763Z,70.70
2018-11-05T01:44:14.770Z,70.57
2018-11-05T01:46:44.743Z,71.48
2018-11-05T01:49:14.711Z,71.55
2018-11-05T01:51:44.780Z,71.89
2018-11-05T01:54:14.779Z,71.97
2018-11-05T01:56:44.736Z,71.51
2018-11-05T01:59:14.755Z,71.66
2018-11-05T02:01:44.756Z,71.67
2018-11-05T02:04:14.721Z,71.69
2018-11-05T02:06:44.874Z,71.39
2018-11-05T02:09:14.870Z,71.59
2018-11-05T02:11:44.771Z,71.33
2018-11-05T02:14:14.742Z,70.82
2018-11-05T02:16:44.709Z,71.06
2018-11-05T02:19:14.719Z,71.30
2018-11-05T02:21:44.743Z,71.22
2018-11-05T02:24:14.733Z,71.00
2018-11-05T02:26:44.646Z,71.02
2018-11-05T02:29:14.666Z,71.27
2018-11-05T02:31:44.643Z,70.97
2018-11-05T02:34:14.598Z,71.17
2018-11-05T02:36:44.623Z,70.92
2018-11-05T02:39:14.560Z,71.23
2018-11-05T02:41:44.524Z,70.89
2018-11-05T02:44:14.486Z,70.87
2018-11-05T02:46:44.521Z,71.15
2018-11-05T02:49:14.809Z,71.02
2018-11-05T02:51:44.814Z,71.27
2018-11-05T02:54:14.807Z,70.85
2018-11-05T02:56:44.764Z,70.47
2018-11-05T02:59:15.038Z,70.66
2018-11-05T03:01:45.034Z,70.84
2018-11-05T03:04:15.088Z,70.67
2018-11-05T03:06:45.043Z,70.81
2018-11-05T03:09:15.003Z,70.31
2018-11-05T03:11:44.980Z,70.64
2018-11-05T03:14:14.984Z,70.50
2018-11-05T03:16:44.953Z,70.59
2018-11-05T03:19:15.044Z,70.31
2018-11-05T03:21:45.001Z,70.56
2018-11-05T03:24:14.990Z,70.50
2018-11-05T03:26:44.944Z,70.10
2018-11-05T03:29:14.949Z,69.99
2018-11-05T03:31:44.916Z,70.10
2018-11-05T03:34:14.867Z,69.89
2018-11-05T03:36:44.801Z,69.89
2018-11-05T03:39:14.833Z,69.98
2018-11-05T03:41:44.827Z,69.46
2018-11-05T03:44:14.848Z,69.78
2018-11-05T03:46:44.887Z,69.52
2018-11-05T03:49:15.061Z,69.33
2018-11-05T03:51:44.998Z,69.48
2018-11-05T03:54:15.110Z,69.44
2018-11-05T03:56:45.150Z,69.37
2018-11-05T03:59:15.068Z,68.91
2018-11-05T04:01:45.040Z,68.73
2018-11-05T04:04:15.029Z,68.74
2018-11-05T04:06:44.994Z,68.50
2018-11-05T04:09:15.876Z,68.56
2018-11-05T04:11:45.817Z,68.56
2018-11-05T04:14:15.812Z,68.42
2018-11-05T04:16:45.779Z,68.48
2018-11-05T04:19:15.755Z,68.45
2018-11-05T04:21:46.142Z,68.62
2018-11-05T04:24:16.481Z,68.41
2018-11-05T04:26:46.809Z,68.09
2018-11-05T04:29:16.811Z,68.09
2018-11-05T04:31:46.824Z,68.55
2018-11-05T04:34:16.795Z,68.24
2018-11-05T04:36:46.827Z,68.72
2018-11-05T04:39:17.223Z,68.67
2018-11-05T04:41:47.200Z,68.57
2018-11-05T04:44:17.167Z,68.32
2018-11-05T04:46:47.170Z,68.52
2018-11-05T04:49:17.176Z,68.60
2018-11-05T04:51:47.160Z,68.72
2018-11-05T04:54:17.160Z,68.26
2018-11-05T04:56:47.139Z,68.33
2018-11-05T04:59:17.149Z,68.31
2018-11-05T05:01:47.134Z,67.97
2018-11-05T05:04:17.120Z,68.02
2018-11-05T05:06:47.083Z,68.35
2018-11-05T05:09:17.083Z,67.89
2018-11-05T05:11:47.067Z,67.95
2018-11-05T05:14:17.023Z,68.54
2018-11-05T05:16:46.986Z,67.79
2018-11-05T05:19:16.991Z,67.50
2018-11-05T05:21:46.984Z,67.53
2018-11-05T05:24:16.973Z,67.56
2018-11-05T05:26:46.913Z,67.30
2018-11-05T05:29:16.931Z,67.49
2018-11-05T05:31:46.959Z,67.38
2018-11-05T05:34:16.946Z,67.70
2018-11-05T05:36:46.900Z,67.46
2018-11-05T05:39:16.905Z,67.50
2018-11-05T05:41:46.859Z,67.35
2018-11-05T05:44:16.856Z,67.50
2018-11-05T05:46:46.811Z,66.74
2018-11-05T05:49:16.776Z,67.34
2018-11-05T05:51:46.767Z,67.05
2018-11-05T05:54:16.783Z,66.56
2018-11-05T05:56:46.758Z,66.98
2018-11-05T05:59:16.773Z,66.82
2018-11-05T06:01:46.719Z,66.37
2018-11-05T06:04:16.738Z,66.85
2018-11-05T06:06:46.812Z,66.67
2018-11-05T06:09:16.835Z,66.43
2018-11-05T06:11:46.815Z,66.58
2018-11-05T06:14:16.703Z,66.34
2018-11-05T06:16:46.672Z,66.31
2018-11-05T06:19:16.642Z,66.32
2018-11-05T06:21:46.672Z,66.17
2018-11-05T06:24:16.690Z,66.58
2018-11-05T06:26:46.834Z,66.24
2018-11-05T06:29:16.793Z,66.30
2018-11-05T06:31:46.796Z,66.44
2018-11-05T06:34:16.750Z,66.18
2018-11-05T06:36:46.783Z,66.50
2018-11-05T06:39:16.736Z,66.12
2018-11-05T06:41:46.792Z,66.46
2018-11-05T06:44:16.692Z,66.32
2018-11-05T06:46:46.676Z,66.28
2018-11-05T06:49:16.720Z,66.21
2018-11-05T06:51:46.705Z,66.00
2018-11-05T06:54:16.694Z,66.18
2018-11-05T06:56:46.616Z,66.13
2018-11-05T06:59:16.530Z,65.96
2018-11-05T07:01:46.522Z,65.85
2018-11-05T07:04:16.470Z,66.42
2018-11-05T07:06:46.426Z,66.45
2018-11-05T07:09:16.371Z,66.14
2018-11-05T07:11:46.296Z,65.90
2018-11-05T07:14:16.283Z,66.09
2018-11-05T07:16:46.199Z,66.00
2018-11-05T07:19:16.344Z,66.06
2018-11-05T07:21:46.117Z,65.20
2018-11-05T07:24:16.256Z,65.13
2018-11-05T07:26:46.782Z,65.16
2018-11-05T07:29:16.659Z,65.53
2018-11-05T07:31:46.604Z,64.80
2018-11-05T07:34:16.628Z,65.04
2018-11-05T07:36:46.563Z,65.61
2018-11-05T07:39:16.582Z,64.80
2018-11-05T07:41:46.489Z,65.27
2018-11-05T07:44:16.460Z,65.18
2018-11-05T07:46:46.389Z,65.23
2018-11-05T07:49:16.289Z,64.75
2018-11-05T07:51:46.265Z,64.90
2018-11-05T07:54:16.245Z,64.57
2018-11-05T07:56:46.289Z,64.29
2018-11-05T07:59:16.161Z,64.59
2018-11-05T08:01:46.131Z,64.92
2018-11-05T08:04:16.108Z,64.89
2018-11-05T08:06:46.080Z,64.73
2018-11-05T08:09:16.038Z,64.64
2018-11-05T08:11:45.978Z,64.37
2018-11-05T08:14:16.265Z,64.37
2018-11-05T08:16:46.156Z,63.91
2018-11-05T08:19:16.106Z,64.28
2018-11-05T08:21:46.060Z,64.38
2018-11-05T08:24:16.021Z,64.35
2018-11-05T08:26:45.967Z,63.87
2018-11-05T08:29:15.934Z,63.98
2018-11-05T08:31:45.851Z,63.78
2018-11-05T08:34:15.745Z,63.77
2018-11-05T08:36:45.696Z,63.92
2018-11-05T08:39:16.075Z,63.51
2018-11-05T08:41:46.004Z,63.11
2018-11-05T08:44:16.035Z,63.49
2018-11-05T08:46:46.043Z,62.90
2018-11-05T08:49:15.933Z,62.81
2018-11-05T08:51:46.136Z,62.99
2018-11-05T08:54:16.184Z,63.08
2018-11-05T08:56:45.940Z,63.06
2018-11-05T08:59:15.846Z,62.49
2018-11-05T09:01:45.712Z,62.88
2018-11-05T09:04:15.641Z,62.93
2018-11-05T09:06:45.562Z,62.98
2018-11-05T09:09:15.583Z,62.95
2018-11-05T09:11:45.698Z,62.39
2018-11-05T09:14:15.447Z,62.51
2018-11-05T09:16:45.438Z,61.73
2018-11-05T09:19:15.504Z,62.07
2018-11-05T09:21:45.442Z,61.76
2018-11-05T09:24:15.365Z,62.38
2018-11-05T09:26:45.657Z,62.08
2018-11-05T09:29:15.626Z,61.21
2018-11-05T09:31:45.546Z,61.18
2018-11-05T09:34:15.505Z,61.53
2018-11-05T09:36:45.474Z,61.24
2018-11-05T09:39:15.504Z,61.21
2018-11-05T09:41:45.474Z,61.13
2018-11-05T09:44:15.394Z,61.05
2018-11-05T09:46:45.427Z,61.15
2018-11-05T09:49:15.393Z,61.04
2018-11-05T09:51:45.366Z,60.88
2018-11-05T09:54:15.322Z,60.69
2018-11-05T09:56:45.406Z,60.83
2018-11-05T09:59:15.617Z,60.88
2018-11-05T10:01:45.592Z,60.77
2018-11-05T10:04:15.634Z,61.09
2018-11-05T10:06:45.439Z,60.62
2018-11-05T10:09:15.516Z,60.53
2018-11-05T10:11:45.472Z,59.92
2018-11-05T10:14:15.376Z,60.26
2018-11-05T10:16:45.327Z,60.60
2018-11-05T10:19:15.297Z,60.03
2018-11-05T10:21:45.184Z,59.94
2018-11-05T10:24:15.166Z,60.20
2018-11-05T10:26:45.106Z,60.04
2018-11-05T10:29:15.693Z,59.29
2018-11-05T10:31:45.607Z,59.82
2018-11-05T10:34:15.554Z,59.13
2018-11-05T10:36:45.487Z,59.08
2018-11-05T10:39:15.322Z,58.74
2018-11-05T10:41:45.247Z,59.28
2018-11-05T10:44:15.270Z,58.56
2018-11-05T10:46:45.191Z,58.56
2018-11-05T10:49:15.783Z,58.77
2018-11-05T10:51:45.708Z,58.48
2018-11-05T10:54:16.187Z,58.16
2018-11-05T10:56:46.171Z,57.87
2018-11-05T10:59:16.077Z,57.67
2018-11-05T11:01:51.123Z,57.69
2018-11-05T11:04:25.877Z,57.21
2018-11-05T11:06:55.673Z,56.54
2018-11-05T11:09:25.605Z,56.44
2018-11-05T11:11:55.533Z,56.46
2018-11-05T11:14:25.495Z,56.64
2018-11-05T11:16:55.475Z,57.01
2018-11-05T11:19:25.436Z,56.57
2018-11-05T11:21:55.443Z,57.27
2018-11-05T11:24:25.284Z,56.91
2018-11-05T11:26:55.335Z,56.96
2018-11-05T11:29:25.380Z,56.17
2018-11-05T11:31:55.262Z,56.59
2018-11-05T11:34:25.196Z,55.63
2018-11-05T11:36:55.156Z,55.43
2018-11-05T11:39:25.082Z,55.48
2018-11-05T11:41:55.257Z,54.97
2018-11-05T11:44:25.233Z,55.01
2018-11-05T11:46:55.180Z,54.98
2018-11-05T11:49:25.498Z,54.89
2018-11-05T11:51:55.413Z,54.85
2018-11-05T11:54:25.559Z,55.08
2018-11-05T11:56:56.020Z,54.85
2018-11-05T11:59:26.141Z,55.10
2018-11-05T12:02:01.153Z,55.67
2018-11-05T12:04:31.167Z,55.77
2018-11-05T12:07:01.066Z,56.11
2018-11-05T12:09:31.031Z,56.21
2018-11-05T12:12:00.995Z,55.74
2018-11-05T12:14:30.996Z,56.02
2018-11-05T12:17:00.930Z,56.21
2018-11-05T12:19:30.872Z,56.22
2018-11-05T12:22:00.851Z,56.06
2018-11-05T12:24:30.735Z,56.48
2018-11-05T12:27:01.044Z,56.39
2018-11-05T12:29:31.982Z,56.12
2018-11-05T12:32:02.013Z,56.28
2018-11-05T12:34:32.008Z,55.71
2018-11-05T12:37:01.979Z,55.87
2018-11-05T12:39:31.922Z,55.45
2018-11-05T12:42:01.784Z,55.40
2018-11-05T12:44:31.784Z,54.82
2018-11-05T12:47:01.688Z,55.13
2018-11-05T12:49:31.699Z,55.04
2018-11-05T12:52:01.663Z,54.94
2018-11-05T12:54:31.616Z,54.43
2018-11-05T12:57:01.628Z,54.59
2018-11-05T12:59:31.612Z,54.49
2018-11-05T13:02:01.597Z,55.01
2018-11-05T13:04:31.532Z,54.44
2018-11-05T13:07:01.563Z,54.44
2018-11-05T13:09:31.478Z,54.75
2018-11-05T13:12:01.509Z,54.64
2018-11-05T13:14:31.467Z,54.61
2018-11-05T13:17:01.432Z,54.84
2018-11-05T13:19:31.388Z,54.87
2018-11-05T13:22:01.385Z,54.37
2018-11-05T13:24:31.355Z,54.29
2018-11-05T13:27:01.337Z,54.89
2018-11-05T13:29:31.306Z,55.18
2018-11-05T13:32:01.236Z,55.43
2018-11-05T13:34:31.201Z,55.39
2018-11-05T13:37:01.356Z,54.98
2018-11-05T13:39:31.103Z,55.61
2018-11-05T13:42:01.068Z,55.63
2018-11-05T13:44:31.043Z,55.41
2018-11-05T13:47:01.275Z,55.96
2018-11-05T13:49:31.054Z,55.83
2018-11-05T13:52:00.929Z,55.98
2018-11-05T13:54:30.885Z,55.98
2018-11-05T13:57:00.867Z,55.77
2018-11-05T13:59:30.959Z,55.84
2018-11-05T14:02:00.908Z,55.88
2018-11-05T14:04:31.651Z,56.10
2018-11-05T14:07:01.602Z,56.36
2018-11-05T14:09:31.541Z,56.87
2018-11-05T14:12:01.536Z,57.17
2018-11-05T14:14:31.557Z,56.09
2018-11-05T14:17:01.486Z,56.24
2018-11-05T14:19:31.447Z,56.94
2018-11-05T14:22:01.434Z,56.83
2018-11-05T14:24:31.318Z,56.20
2018-11-05T14:27:01.282Z,56.18
2018-11-05T14:29:31.664Z,56.76
2018-11-05T14:32:01.197Z,56.66
2018-11-05T14:34:31.186Z,56.50
2018-11-05T14:37:01.127Z,56.33
2018-11-05T14:39:31.000Z,56.50
2018-11-05T14:42:00.928Z,56.85
2018-11-05T14:44:30.917Z,56.86
2018-11-05T14:47:00.832Z,57.08
2018-11-05T14:49:30.778Z,56.63
2018-11-05T14:52:00.684Z,56.93
2018-11-05T14:54:30.650Z,56.95
2018-11-05T14:57:00.633Z,57.33
2018-11-05T14:59:30.622Z,57.45
2018-11-05T15:02:05.613Z,57.37
2018-11-05T15:04:35.569Z,57.66
2018-11-05T15:07:05.672Z,57.21
2018-11-05T15:09:35.680Z,57.39
2018-11-05T15:12:05.896Z,57.65
2018-11-05T15:14:36.420Z,58.17
2018-11-05T15:17:07.054Z,57.85
2018-11-05T15:19:37.322Z,58.38
2018-11-05T15:22:06.985Z,58.26
2018-11-05T15:24:36.956Z,58.68
2018-11-05T15:27:06.976Z,58.17
2018-11-05T15:29:36.874Z,58.27
2018-11-05T15:32:07.764Z,57.90
2018-11-05T15:34:37.666Z,58.57
2018-11-05T15:37:07.654Z,58.30
2018-11-05T15:39:37.621Z,58.48
2018-11-05T15:42:07.919Z,58.60
2018-11-05T15:44:37.950Z,58.18
2018-11-05T15:47:07.869Z,58.36
2018-11-05T15:49:37.857Z,58.84
2018-11-05T15:52:08.057Z,58.81
2018-11-05T15:54:37.869Z,58.34
2018-11-05T15:57:08.291Z,58.79
2018-11-05T15:59:38.267Z,59.00
2018-11-05T16:02:11.236Z,58.89
2018-11-05T16:04:42.229Z,59.21
2018-11-05T16:07:12.198Z,59.17
2018-11-05T16:09:42.169Z,59.17
2018-11-05T16:12:12.116Z,59.15
2018-11-05T16:14:42.087Z,58.99
2018-11-05T16:17:12.041Z,59.32
2018-11-05T16:19:42.023Z,59.88
2018-11-05T16:22:12.005Z,59.29
2018-11-05T16:24:41.990Z,59.59
2018-11-05T16:27:11.961Z,59.78
2018-11-05T16:29:41.964Z,59.77
2018-11-05T16:32:12.043Z,60.11
2018-11-05T16:34:41.908Z,60.07
2018-11-05T16:37:11.898Z,59.94
2018-11-05T16:39:41.977Z,59.97
2018-11-05T16:42:11.787Z,60.14
2018-11-05T16:44:41.766Z,60.01
2018-11-05T16:47:12.099Z,60.46
2018-11-05T16:49:41.998Z,60.64
2018-11-05T16:52:12.267Z,60.86
2018-11-05T16:54:42.243Z,60.81
2018-11-05T16:57:12.238Z,60.98
2018-11-05T16:59:42.280Z,61.17
2018-11-05T17:02:14.227Z,60.71
2018-11-05T17:04:45.398Z,61.08
2018-11-05T17:07:15.592Z,61.08
2018-11-05T17:09:45.559Z,61.35
2018-11-05T17:12:15.552Z,61.18
2018-11-05T17:14:45.504Z,61.40
2018-11-05T17:17:15.470Z,61.54
2018-11-05T17:19:45.441Z,61.46
2018-11-05T17:22:15.465Z,61.77
2018-11-05T17:24:45.447Z,61.62
2018-11-05T17:27:15.479Z,61.81
2018-11-05T17:29:45.598Z,61.69
2018-11-05T17:32:15.567Z,61.56
2018-11-05T17:34:45.579Z,61.34
2018-11-05T17:37:15.688Z,61.70
2018-11-05T17:39:45.663Z,61.95
2018-11-05T17:42:15.645Z,62.21
2018-11-05T17:44:45.626Z,61.92
2018-11-05T17:47:15.676Z,62.01
2018-11-05T17:49:45.622Z,62.32
2018-11-05T17:52:15.628Z,63.17
2018-11-05T17:54:45.773Z,63.16
2018-11-05T17:57:15.771Z,62.95
2018-11-05T17:59:45.774Z,63.25
2018-11-05T18:02:18.910Z,63.18
2018-11-05T18:04:48.938Z,63.05
2018-11-05T18:07:18.896Z,63.20
2018-11-05T18:09:48.910Z,63.40
2018-11-05T18:12:18.909Z,63.74
2018-11-05T18:14:48.864Z,63.73
2018-11-05T18:17:18.859Z,63.90
2018-11-05T18:19:48.837Z,64.36
2018-11-05T18:22:18.816Z,64.19
2018-11-05T18:24:48.851Z,64.70
2018-11-05T18:27:18.880Z,64.78
2018-11-05T18:29:48.882Z,64.57
2018-11-05T18:32:20.841Z,64.16
2018-11-05T18:34:52.495Z,64.40
2018-11-05T18:37:22.405Z,64.46
2018-11-05T18:39:52.369Z,64.40
2018-11-05T18:42:22.329Z,64.66
2018-11-05T18:44:52.311Z,64.36
2018-11-05T18:47:22.375Z,64.72
2018-11-05T18:49:52.388Z,64.69
2018-11-05T18:52:22.444Z,64.41
2018-11-05T18:54:52.360Z,64.69
2018-11-05T18:57:22.279Z,64.33
2018-11-05T18:59:52.240Z,64.43
2018-11-05T19:02:27.187Z,64.76
2018-11-05T19:04:57.166Z,64.91
2018-11-05T19:07:27.145Z,64.58
2018-11-05T19:09:57.213Z,64.81
2018-11-05T19:12:27.243Z,64.65
2018-11-05T19:14:57.604Z,64.61
2018-11-05T19:17:27.600Z,64.98
2018-11-05T19:19:57.518Z,65.00
2018-11-05T19:22:27.468Z,65.18
2018-11-05T19:24:57.443Z,65.35
2018-11-05T19:27:27.469Z,64.98
2018-11-05T19:29:57.485Z,65.61
2018-11-05T19:32:27.803Z,65.67
2018-11-05T19:34:57.858Z,65.80
2018-11-05T19:37:27.862Z,65.84
2018-11-05T19:39:57.900Z,65.61
2018-11-05T19:42:27.999Z,65.21
2018-11-05T19:44:57.889Z,66.04
2018-11-05T19:47:27.882Z,65.18
2018-11-05T19:49:57.911Z,65.94
2018-11-05T19:52:28.012Z,66.03
2018-11-05T19:54:58.023Z,65.90
2018-11-05T19:57:28.014Z,65.53
2018-11-05T19:59:57.990Z,65.26
2018-11-05T20:02:29.754Z,65.48
2018-11-05T20:04:59.979Z,66.04
2018-11-05T20:07:30.021Z,66.31
2018-11-05T20:09:59.952Z,65.68
2018-11-05T20:12:29.936Z,65.97
2018-11-05T20:15:00.321Z,66.19
2018-11-05T20:17:30.249Z,66.70
2018-11-05T20:20:00.254Z,66.22
2018-11-05T20:22:30.314Z,66.60
2018-11-05T20:25:00.185Z,66.71
2018-11-05T20:27:30.305Z,66.82
2018-11-05T20:30:00.256Z,66.95
2018-11-05T20:32:30.535Z,66.78
2018-11-05T20:35:00.358Z,66.85
2018-11-05T20:37:30.344Z,66.90
2018-11-05T20:40:00.478Z,66.36
2018-11-05T20:42:30.491Z,66.23
2018-11-05T20:45:00.497Z,66.42
2018-11-05T20:47:30.500Z,66.47
2018-11-05T20:50:00.482Z,66.33
2018-11-05T20:52:30.501Z,66.71
2018-11-05T20:55:00.458Z,66.21
2018-11-05T20:57:30.507Z,66.27
2018-11-05T21:00:00.503Z,66.19
2018-11-05T21:02:30.703Z,66.09
2018-11-05T21:05:00.735Z,66.10
2018-11-05T21:07:30.684Z,66.16
2018-11-05T21:10:00.684Z,65.96
2018-11-05T21:12:30.674Z,65.98
2018-11-05T21:15:00.706Z,66.13
2018-11-05T21:17:30.745Z,66.40
2018-11-05T21:20:00.829Z,66.37
2018-11-05T21:22:30.925Z,66.15
2018-11-05T21:25:00.903Z,66.12
2018-11-05T21:27:30.977Z,66.46
2018-11-05T21:30:00.961Z,66.31
2018-11-05T21:32:30.957Z,66.25
2018-11-05T21:35:00.965Z,66.15
2018-11-05T21:37:31.087Z,66.31
2018-11-05T21:40:01.154Z,66.03
2018-11-05T21:42:31.194Z,65.98
2018-11-05T21:45:01.174Z,66.24
2018-11-05T21:47:31.245Z,66.85
2018-11-05T21:50:01.323Z,66.48
2018-11-05T21:52:31.357Z,66.49
2018-11-05T21:55:01.441Z,66.71
2018-11-05T21:57:31.442Z,66.48
2018-11-05T22:00:01.556Z,66.72
2018-11-05T22:02:33.716Z,66.29
2018-11-05T22:05:03.719Z,66.16
2018-11-05T22:07:33.713Z,66.71
2018-11-05T22:10:03.739Z,66.26
2018-11-05T22:12:33.757Z,66.60
2018-11-05T22:15:04.037Z,66.11
2018-11-05T22:17:34.102Z,65.80
2018-11-05T22:20:04.521Z,65.90
2018-11-05T22:22:34.546Z,65.99
2018-11-05T22:25:04.744Z,66.06
2018-11-05T22:27:35.067Z,65.96
2018-11-05T22:30:05.869Z,65.79
2018-11-05T22:32:35.818Z,65.85
2018-11-05T22:35:05.844Z,66.09
2018-11-05T22:37:35.853Z,65.61
2018-11-05T22:40:08.508Z,65.52
2018-11-05T22:42:38.497Z,65.68
2018-11-05T22:45:10.144Z,65.70
2018-11-05T22:47:40.772Z,65.70
2018-11-05T22:50:10.750Z,65.49
2018-11-05T22:52:41.226Z,65.65
2018-11-05T22:55:11.218Z,65.52
2018-11-05T22:57:41.240Z,65.20
2018-11-05T23:00:23.316Z,65.66
2018-11-05T23:02:58.297Z,65.87
2018-11-05T23:05:28.254Z,65.80
2018-11-05T23:07:58.271Z,65.52
2018-11-05T23:10:28.257Z,65.60
2018-11-05T23:12:58.266Z,65.68
2018-11-05T23:15:28.259Z,65.42
2018-11-05T23:17:58.766Z,65.03
2018-11-05T23:20:28.686Z,65.40
2018-11-05T23:22:58.690Z,65.02
2018-11-05T23:25:28.710Z,65.36
2018-11-05T23:27:58.680Z,65.32
2018-11-05T23:30:28.654Z,65.43
2018-11-05T23:32:58.516Z,65.96
2018-11-05T23:35:28.470Z,66.18
2018-11-05T23:37:58.459Z,66.13
2018-11-05T23:40:28.463Z,65.95
2018-11-05T23:42:58.515Z,65.78
2018-11-05T23:45:28.534Z,66.25
2018-11-05T23:47:58.504Z,66.29
2018-11-05T23:50:28.492Z,66.39
2018-11-05T23:52:58.471Z,66.81
2018-11-05T23:55:28.463Z,66.67
2018-11-05T23:57:58.439Z,66.45
